Latest Weather Observations for Browse Island

IDW60801

Issued at 12:35 am WST Tuesday 25 November 2014 (issued every 30 minutes, with the page automatically refreshed every 10 minutes)

About weather observations | Map of weather stations | Latest weather observations for WA | Other Formats
Station Details ID: 200784 Name: BROWSE ISLAND Lat: -14.11 Lon: 123.55 Height: 3.7 m
Data from the previous 72 hours. | See also: Recent months for locations in Western Australia
Date/Time
WST
Temp
°C
App
Temp
°C
Dew
Point
Rel
Hum
%
Delta-T
°C
Wind Press
QNH
hPa
Press
MSL
hPa
Rain
since 9 am
mm
Dir
 
Spd
km/h
Gust
km/h
Spd
kts
Gust
kts
25/12:30am 30.0 - - - - W 13 15 7 8 1007.0 - -
25/12:00am 30.2 - - - - W 17 17 9 9 1008.0 1008.2 -
 
Date/Time
WST
Temp
°C
App
Temp
°C
Dew
Point
Rel
Hum
%
Delta-T
°C
Wind Press
QNH
hPa
Press
MSL
hPa
Rain
since 9 am
mm
Dir
 
Spd
km/h
Gust
km/h
Spd
kts
Gust
kts
24/11:30pm 30.0 - - - - W 15 - 8 - 1008.0 - -
24/11:00pm 30.2 - - - - W 13 - 7 - 1009.0 1009.1 -
24/10:30pm 30.0 - - - - W 13 - 7 - 1009.0 - -
24/10:00pm 30.5 - - - - W 13 - 7 - 1009.0 1009.3 -
24/09:30pm 30.0 - - - - WSW 11 - 6 - 1009.0 - -
24/09:00pm 30.4 - - - - WSW 11 - 6 - 1009.0 1009.3 -
24/08:30pm 31.0 - - - - SW 9 - 5 - 1009.0 - -
24/08:00pm 30.7 - - - - SW 9 - 5 - 1009.0 1009.1 -
24/07:30pm 31.0 - - - - SW 9 - 5 - 1008.0 - -
24/07:00pm 30.7 - - - - WSW 11 - 6 - 1008.0 1008.5 -
24/06:30pm 31.0 - - - - SW 11 - 6 - 1008.0 - -
24/06:00pm 30.6 - - - - SW 9 11 5 6 1007.0 1007.7 -
24/05:30pm 31.0 - - - - SW 11 - 6 - 1007.0 - -
24/05:00pm 30.9 - - - - SW 9 - 5 - 1007.0 1006.9 -
24/04:30pm 31.0 - - - - SW 9 - 5 - 1006.0 - -
24/04:00pm 30.9 - - - - WSW 9 - 5 - 1007.0 1006.9 -
24/03:30pm 31.0 - - - - WSW 9 - 5 - 1007.0 - -
24/03:00pm 31.0 - - - - SW 9 - 5 - 1007.0 1007.2 -
24/02:30pm 31.0 - - - - SSW 9 - 5 - 1007.0 - -
24/02:00pm 30.5 - - - - SSW 11 - 6 - 1007.0 1007.7 -
24/01:30pm 31.0 - - - - S 11 - 6 - 1008.0 - -
24/01:00pm 30.6 - - - - S 13 - 7 - 1008.0 1008.6 -
24/12:30pm 30.0 - - - - S 15 - 8 - 1009.0 - -
24/12:00pm 30.1 - - - - S 17 - 9 - 1009.0 1009.3 -
24/11:30am 30.0 - - - - S 17 - 9 - 1009.0 - -
24/11:00am 29.8 - - - - S 17 - 9 - 1010.0 1009.9 -
24/10:30am 31.0 - - - - S 15 - 8 - 1010.0 - -
24/10:00am 30.0 - - - - S 15 - 8 - 1010.0 1010.6 -
24/09:30am 30.0 - - - - S 15 - 8 - 1010.0 - -
24/09:00am 29.7 - - - - S 17 - 9 - 1011.0 1010.9 -
24/08:30am 30.0 - - - - S 17 - 9 - 1011.0 - -
24/08:00am 29.7 - - - - S 17 - 9 - 1011.0 1011.1 -
24/07:30am 30.0 - - - - S 15 - 8 - 1011.0 - -
24/07:00am 29.8 - - - - SSW 11 - 6 - 1011.0 1011.0 -
24/06:30am 30.0 - - - - SW 9 - 5 - 1010.0 - -
24/06:00am 29.6 - - - - SW 11 - 6 - 1010.0 1010.5 -
24/05:30am 30.0 - - - - SSW 11 - 6 - 1010.0 - -
24/05:00am 29.5 - - - - SSW 15 - 8 - 1010.0 1009.9 -
24/04:30am 30.0 - - - - SSW 13 - 7 - 1009.0 - -
24/04:00am 29.7 - - - - SSW 15 - 8 - 1009.0 1009.6 -
24/03:30am 30.0 - - - - SSW 9 - 5 - 1009.0 - -
24/03:00am 29.8 - - - - W 6 - 3 - 1009.0 1009.1 -
24/02:30am 30.0 - - - - WNW 6 - 3 - 1008.0 - -
24/02:00am 29.7 - - - - CALM 0 - 0 - 1009.0 1008.9 -
24/01:30am 30.0 - - - - CALM 0 - 0 - 1009.0 - -
24/01:00am 29.6 - - - - CALM 0 - 0 - 1009.0 1009.3 -
24/12:30am 30.0 - - - - CALM 0 - 0 - 1009.0 - -
24/12:00am 29.8 - - - - ESE 4 - 2 - 1010.0 1009.9 -
 
Date/Time
WST
Temp
°C
App
Temp
°C
Dew
Point
Rel
Hum
%
Delta-T
°C
Wind Press
QNH
hPa
Press
MSL
hPa
Rain
since 9 am
mm
Dir
 
Spd
km/h
Gust
km/h
Spd
kts
Gust
kts
23/11:30pm 30.0 - - - - CALM 0 - 0 - 1010.0 - -
23/11:00pm 30.2 - - - - WSW 4 - 2 - 1011.0 1010.9 -
23/10:30pm 30.0 - - - - SSW 6 - 3 - 1011.0 - -
23/10:00pm 30.3 - - - - WSW 9 - 5 - 1011.0 1011.0 -
23/09:30pm 30.0 - - - - W 7 - 4 - 1010.0 - -
23/09:00pm 30.3 - - - - WNW 9 - 5 - 1010.0 1010.3 -
23/08:30pm 30.0 - - - - NNW 6 - 3 - 1010.0 - -
23/08:00pm 29.9 - - - - NW 6 - 3 - 1009.0 1009.5 -
23/07:30pm 30.0 - - - - NW 4 - 2 - 1009.0 - -
23/07:00pm 30.0 - - - - CALM 0 - 0 - 1009.0 1009.0 -
23/06:30pm 30.0 - - - - CALM 0 - 0 - 1008.0 - -
23/06:00pm 30.1 - - - - NW 7 - 4 - 1008.0 1008.2 -
23/05:30pm 31.0 - - - - NW 6 - 3 - 1008.0 - -
23/05:00pm 31.3 - - - - SW 4 - 2 - 1007.0 1007.7 -
23/04:30pm 31.0 - - - - SSW 6 - 3 - 1007.0 - -
23/04:00pm 30.9 - - - - W 9 - 5 - 1007.0 1007.4 -
23/03:30pm 31.0 - - - - WSW 9 - 5 - 1007.0 - -
23/03:00pm 31.0 - - - - WSW 9 - 5 - 1007.0 1007.7 -
23/02:30pm 31.0 - - - - SW 9 - 5 - 1008.0 - -
23/02:00pm 31.0 - - - - SW 9 - 5 - 1008.0 1008.2 -
23/01:30pm 31.0 - - - - SSW 7 - 4 - 1008.0 - -
23/01:00pm 31.2 - - - - WSW 9 - 5 - 1009.0 1008.9 -
23/12:30pm 32.0 - - - - SSW 7 - 4 - 1009.0 - -
23/12:00pm 31.3 - - - - SSW 7 - 4 - 1009.0 1009.4 -
23/11:30am 31.0 - - - - SSW 6 - 3 - 1009.0 - -
23/11:00am 31.4 - - - - W 6 - 3 - 1010.0 1010.0 -
23/10:30am 31.0 - - - - SW 7 - 4 - 1010.0 - -
23/10:00am 31.0 - - - - W 7 - 4 - 1010.0 1010.5 -
23/09:30am 31.0 - - - - W 7 - 4 - 1010.0 - -
23/09:00am 30.7 - - - - SSW 7 - 4 - 1010.0 1010.5 -
23/08:30am 30.0 - - - - S 7 - 4 - 1010.0 - -
23/08:00am 30.6 - - - - S 7 - 4 - 1010.0 1010.6 -
23/07:30am 30.0 - - - - SSE 7 - 4 - 1010.0 - -
23/07:00am 30.2 - - - - SE 9 - 5 - 1010.0 1010.5 -
23/06:30am 30.0 - - - - SSE 11 - 6 - 1010.0 - -
23/06:00am 29.6 - - - - SSE 9 - 5 - 1010.0 1010.1 -
23/05:30am 29.0 - - - - S 7 - 4 - 1009.0 - -
23/05:00am 29.5 - - - - S 6 - 3 - 1009.0 1009.4 -
23/04:30am 30.0 - - - - SSW 7 - 4 - 1009.0 - -
23/04:00am 29.7 - - - - WSW 7 - 4 - 1009.0 1009.1 -
23/03:30am 30.0 - - - - SW 7 - 4 - 1009.0 - -
23/03:00am 29.7 - - - - SW 2 - 1 - 1008.0 1008.8 -
23/02:30am 30.0 - - - - CALM 0 - 0 - 1009.0 - -
23/02:00am 29.8 - - - - SE 2 - 1 - 1009.0 1009.4 -
23/01:30am 30.0 - - - - CALM 0 - 0 - 1009.0 - -
23/01:00am 30.0 - - - - CALM 0 - 0 - 1009.0 1009.6 -
23/12:30am 30.0 - - - - NW 7 - 4 - 1010.0 - -
23/12:00am 30.3 - - - - NW 7 - 4 - 1010.0 1010.3 -
 
Date/Time
WST
Temp
°C
App
Temp
°C
Dew
Point
Rel
Hum
%
Delta-T
°C
Wind Press
QNH
hPa
Press
MSL
hPa
Rain
since 9 am
mm
Dir
 
Spd
km/h
Gust
km/h
Spd
kts
Gust
kts
22/11:30pm 30.0 - - - - NW 6 - 3 - 1010.0 - -
22/11:00pm 30.5 - - - - WNW 7 - 4 - 1010.0 1010.6 -
22/10:30pm 31.0 - - - - W 9 - 5 - 1010.0 - -
22/10:00pm 30.4 - - - - W 9 - 5 - 1010.0 1010.7 -
22/09:30pm 30.0 - - - - W 9 - 5 - 1010.0 - -
22/09:00pm 30.4 - - - - W 11 - 6 - 1010.0 1010.6 -
22/08:30pm 31.0 - - - - W 9 - 5 - 1010.0 - -
22/08:00pm 30.6 - - - - W 9 - 5 - 1010.0 1010.5 -
22/07:30pm 30.0 - - - - W 7 - 4 - 1010.0 - -
22/07:00pm 30.7 - - - - W 9 - 5 - 1010.0 1009.9 -
22/06:30pm 31.0 - - - - W 9 - 5 - 1009.0 - -
22/06:00pm 30.9 - - - - W 7 - 4 - 1009.0 1008.9 -
22/05:30pm 31.0 - - - - W 7 - 4 - 1008.0 - -
22/05:00pm 31.3 - - - - W 9 - 5 - 1008.0 1008.1 -
22/04:30pm 32.0 - - - - WSW 11 - 6 - 1008.0 - -
22/04:00pm 31.8 - - - - WSW 9 - 5 - 1008.0 1007.9 -
22/03:30pm 31.0 - - - - WSW 11 - 6 - 1008.0 - -
22/03:00pm 31.5 - - - - WSW 9 - 5 - 1008.0 1008.3 -
22/02:30pm 33.0 - - - - SW 9 - 5 - 1008.0 - -
22/02:00pm 31.7 - - - - SW 9 - 5 - 1009.0 1009.0 -
22/01:30pm 31.0 - - - - WSW 11 - 6 - 1009.0 - -
22/01:00pm 31.1 - - - - WSW 11 - 6 - 1009.0 1009.3 -
22/12:30pm 32.0 - - - - WSW 7 - 4 - 1009.0 - -
22/12:00pm 31.6 - - - - WSW 7 - 4 - 1010.0 1010.2 -
22/11:30am 31.0 - - - - W 7 - 4 - 1010.0 - -
22/11:00am 31.4 - - - - WNW 7 - 4 - 1010.0 1010.7 -
22/10:30am 31.0 - - - - W 7 - 4 - 1011.0 - -
22/10:00am 31.6 - - - - W 6 - 3 - 1011.0 1011.3 -
22/09:30am 31.0 - - - - W 7 - 4 - 1011.0 - -
22/09:00am 30.8 - - - - W 7 - 4 - 1011.0 1011.4 -
22/08:30am 31.0 - - - - WNW 6 - 3 - 1011.0 - -
22/08:00am 30.6 - - - - W 6 - 3 - 1011.0 1011.1 -
22/07:30am 30.0 - - - - WNW 6 - 3 - 1010.0 - -
22/07:00am 30.2 - - - - W 6 - 3 - 1010.0 1010.6 -
22/06:30am 30.0 - - - - WSW 6 - 3 - 1010.0 - -
22/06:00am 29.6 - - - - SW 7 - 4 - 1010.0 1009.9 -
22/05:30am 30.0 - - - - WSW 11 - 6 - 1009.0 - -
22/05:00am 29.4 - - - - WSW 9 - 5 - 1009.0 1009.1 -
22/04:30am 29.0 - - - - SW 6 - 3 - 1009.0 - -
22/04:00am 29.4 - - - - SW 7 - 4 - 1008.0 1008.6 -
22/03:30am 30.0 - - - - SW 7 - 4 - 1008.0 - -
22/03:00am 29.6 - - - - CALM 0 - 0 - 1008.0 1008.4 -
22/02:30am 30.0 - - - - SW 2 - 1 - 1008.0 - -
22/02:00am 29.5 - - - - SSW 9 - 5 - 1008.0 1008.2 -
22/01:30am 30.0 - - - - SSW 7 - 4 - 1008.0 - -
22/01:00am 29.6 - - - - W 6 - 3 - 1008.0 1008.2 -

Other Formats:

Comma delimited format used in spreadsheet applications
http://www.bom.gov.au/fwo/IDW60801/IDW60801.94103.axf

JavaScript Object Notation format (JSON) in row-major order
http://www.bom.gov.au/fwo/IDW60801/IDW60801.94103.json